Time;durP1;ratioP1;P1;durP2;ratioP2;P2;SDS_P1;SDS_P2;PMS_P1;PMS_P2;Temp;Humidity;BMP_temperature;BMP_pressure;BME280_temperature;BME280_humidity;BME280_pressure;Samples;Min_cycle;Max_cycle;Signal;HPM_P1;HPM_P2
2021/04/06 00:02:00;;;;;;;7.45;2.05;;;3.80;75.90;;;;;;5012357;28;20092;-66
2021/04/06 00:04:32;;;;;;;4.32;1.45;;;3.70;75.80;;;;;;5011015;28;20025;-67
2021/04/06 00:07:02;;;;;;;6.65;1.70;;;3.70;75.90;;;;;;5031960;28;20044;-66
2021/04/06 00:09:32;;;;;;;9.25;1.50;;;3.70;75.80;;;;;;4998567;28;20051;-69
2021/04/06 00:12:00;;;;;;;6.47;1.50;;;3.70;75.90;;;;;;5031996;28;20084;-68
2021/04/06 00:14:28;;;;;;;5.57;1.38;;;3.70;75.80;;;;;;5017383;28;20038;-67
2021/04/06 00:16:56;;;;;;;6.80;1.52;;;3.70;75.70;;;;;;5024535;28;20026;-67
2021/04/06 00:19:24;;;;;;;5.25;1.65;;;3.70;75.70;;;;;;5009639;28;20375;-67
2021/04/06 00:21:54;;;;;;;9.38;2.05;;;3.60;76.00;;;;;;4994131;28;20028;-67
2021/04/06 00:24:23;;;;;;;7.47;1.70;;;3.60;76.30;;;;;;5012979;28;20034;-67
2021/04/06 00:26:52;;;;;;;3.90;1.40;;;3.60;76.60;;;;;;4992737;28;20029;-67
2021/04/06 00:29:20;;;;;;;4.82;1.45;;;3.60;76.70;;;;;;5010964;28;20109;-67
2021/04/06 00:31:48;;;;;;;5.85;1.50;;;3.60;76.50;;;;;;5030523;28;20036;-67
2021/04/06 00:34:16;;;;;;;6.47;1.60;;;3.60;77.00;;;;;;5017657;28;20160;-68
2021/04/06 00:36:43;;;;;;;5.65;1.67;;;3.60;77.10;;;;;;5026259;28;20390;-67
2021/04/06 00:39:10;;;;;;;5.10;1.90;;;3.60;77.00;;;;;;5020972;28;20044;-67
2021/04/06 00:41:37;;;;;;;5.35;1.55;;;3.60;77.40;;;;;;5026087;28;20108;-68
2021/04/06 00:44:13;;;;;;;2.97;1.30;;;3.50;77.30;;;;;;5011327;28;20046;-68
2021/04/06 00:46:43;;;;;;;7.45;2.00;;;3.50;77.50;;;;;;5024500;28;20037;-67
2021/04/06 00:49:12;;;;;;;7.43;1.92;;;3.50;78.00;;;;;;4994573;28;20085;-67
2021/04/06 00:51:39;;;;;;;7.93;1.75;;;3.50;78.00;;;;;;5010563;28;20026;-67
2021/04/06 00:54:06;;;;;;;9.85;1.52;;;3.50;77.90;;;;;;5011450;28;20030;-67
2021/04/06 00:56:37;;;;;;;6.60;1.40;;;3.50;78.30;;;;;;5011245;28;20026;-67
2021/04/06 00:59:06;;;;;;;6.75;1.67;;;3.50;78.10;;;;;;4993723;28;20101;-68
2021/04/06 01:01:44;;;;;;;6.20;1.70;;;3.40;78.70;;;;;;5023549;28;20053;-67
2021/04/06 01:04:12;;;;;;;6.18;1.65;;;3.40;79.00;;;;;;4998708;28;20033;-67
2021/04/06 01:06:57;;;;;;;4.85;1.73;;;3.40;78.70;;;;;;5016279;28;20560;-67
2021/04/06 01:09:41;;;;;;;5.32;1.30;;;3.40;78.80;;;;;;5017434;28;20083;-67
2021/04/06 01:12:08;;;;;;;10.45;2.15;;;3.40;79.20;;;;;;5019698;28;20501;-67
2021/04/06 01:14:35;;;;;;;4.20;1.70;;;3.40;79.80;;;;;;5000889;28;20064;-67
2021/04/06 01:17:03;;;;;;;5.50;1.52;;;3.30;80.40;;;;;;5029842;28;20098;-67
2021/04/06 01:19:30;;;;;;;6.43;1.80;;;3.30;79.80;;;;;;5014284;28;20028;-67
2021/04/06 01:21:57;;;;;;;7.45;1.65;;;3.30;79.90;;;;;;5014834;28;20025;-68
2021/04/06 01:24:25;;;;;;;9.80;2.08;;;3.30;80.30;;;;;;5029316;28;20056;-67
2021/04/06 01:26:51;;;;;;;5.68;1.80;;;3.30;80.30;;;;;;5014811;28;20026;-67
2021/04/06 01:29:17;;;;;;;4.28;1.70;;;3.30;80.50;;;;;;5013128;28;20026;-68
2021/04/06 01:31:43;;;;;;;5.78;1.65;;;3.30;81.50;;;;;;5032602;28;20037;-67
2021/04/06 01:34:09;;;;;;;6.68;1.77;;;3.30;81.90;;;;;;5023242;28;20041;-67
2021/04/06 01:36:35;;;;;;;5.75;1.75;;;3.30;81.70;;;;;;5034840;28;20017;-67
2021/04/06 01:39:00;;;;;;;4.68;1.60;;;3.30;81.60;;;;;;5005616;28;20041;-67
2021/04/06 01:41:27;;;;;;;3.55;1.60;;;3.20;81.70;;;;;;5034116;28;20026;-67
2021/04/06 01:43:53;;;;;;;6.88;1.90;;;3.20;81.90;;;;;;5007844;28;20112;-67
2021/04/06 01:46:28;;;;;;;5.10;1.85;;;3.20;82.50;;;;;;4995549;28;20022;-67
2021/04/06 01:48:54;;;;;;;4.68;1.98;;;3.20;82.40;;;;;;5010675;28;20033;-67
2021/04/06 01:51:21;;;;;;;4.95;1.67;;;3.20;82.40;;;;;;5026463;28;20026;-67
2021/04/06 01:53:47;;;;;;;5.28;1.77;;;3.20;82.40;;;;;;5014708;28;20502;-67
2021/04/06 01:56:15;;;;;;;7.07;2.22;;;3.30;82.50;;;;;;5014330;28;20095;-67
2021/04/06 01:58:51;;;;;;;3.67;1.60;;;3.30;82.20;;;;;;5019378;28;20475;-67
2021/04/06 02:01:24;;;;;;;6.95;2.03;;;3.30;82.40;;;;;;5026026;28;20049;-67
2021/04/06 02:04:06;;;;;;;6.43;2.22;;;3.30;82.40;;;;;;5032274;28;20025;-68
2021/04/06 02:06:35;;;;;;;7.40;2.10;;;3.30;82.70;;;;;;5002433;28;20080;-68
2021/04/06 02:09:05;;;;;;;7.53;1.90;;;3.30;82.80;;;;;;5012028;28;20033;-68
2021/04/06 02:11:33;;;;;;;6.72;1.63;;;3.30;82.60;;;;;;5000926;28;20049;-68
2021/04/06 02:14:09;;;;;;;7.50;1.60;;;3.30;82.60;;;;;;5013441;28;20073;-68
2021/04/06 02:17:09;;;;;;;5.40;1.88;;;3.30;82.60;;;;;;5016667;28;20049;-68
2021/04/06 02:19:37;;;;;;;4.57;1.88;;;3.30;82.50;;;;;;5023531;28;20117;-68
2021/04/06 02:22:08;;;;;;;5.00;1.63;;;3.40;82.60;;;;;;5032021;28;20033;-67
2021/04/06 02:24:37;;;;;;;6.80;1.98;;;3.40;82.70;;;;;;5018838;28;20413;-67
2021/04/06 02:27:21;;;;;;;4.50;2.05;;;3.30;82.70;;;;;;5031791;28;20037;-68
2021/04/06 02:29:52;;;;;;;5.20;1.73;;;3.30;82.80;;;;;;5018751;28;20033;-67
2021/04/06 02:32:20;;;;;;;7.53;1.80;;;3.40;82.60;;;;;;5033352;28;20026;-68
2021/04/06 02:34:47;;;;;;;9.05;2.10;;;3.40;82.60;;;;;;5008283;28;20087;-68
2021/04/06 02:37:18;;;;;;;6.10;2.00;;;3.40;82.50;;;;;;5033732;28;20101;-67
2021/04/06 02:39:45;;;;;;;6.03;1.70;;;3.40;82.60;;;;;;5024215;28;20037;-68
2021/04/06 02:42:38;;;;;;;4.93;2.25;;;3.40;83.00;;;;;;5031545;28;20083;-67
2021/04/06 02:45:23;;;;;;;8.00;1.90;;;3.40;83.60;;;;;;4992830;28;20504;-67
2021/04/06 02:47:50;;;;;;;;;;;3.30;83.20;;;;;;5000205;28;20041;-67
2021/04/06 02:50:24;;;;;;;8.75;2.00;;;3.30;83.40;;;;;;5028911;28;20211;-67
2021/04/06 02:52:51;;;;;;;6.57;1.87;;;3.30;83.40;;;;;;5023933;28;20038;-67
2021/04/06 02:55:17;;;;;;;4.10;1.80;;;3.20;83.60;;;;;;5022053;28;20029;-67
2021/04/06 02:57:46;;;;;;;3.40;1.77;;;3.30;83.80;;;;;;5018142;28;20025;-67
2021/04/06 03:00:32;;;;;;;5.25;2.15;;;3.30;83.60;;;;;;5019838;28;20048;-67
2021/04/06 03:03:03;;;;;;;5.65;1.80;;;3.30;83.50;;;;;;5016320;28;20037;-68
2021/04/06 03:05:34;;;;;;;4.63;2.03;;;3.30;83.40;;;;;;5026537;28;20033;-67
2021/04/06 03:08:00;;;;;;;5.60;1.77;;;3.30;84.00;;;;;;5013310;28;20040;-67
2021/04/06 03:10:27;;;;;;;6.45;1.95;;;3.30;83.80;;;;;;5021151;28;20029;-67
2021/04/06 03:12:53;;;;;;;5.55;2.20;;;3.30;83.70;;;;;;5013538;28;20038;-67
2021/04/06 03:15:27;;;;;;;5.78;1.75;;;3.30;83.50;;;;;;5021000;28;20175;-67
2021/04/06 03:17:55;;;;;;;4.22;2.08;;;3.30;83.70;;;;;;5014140;28;20033;-67
2021/04/06 03:20:21;;;;;;;6.40;1.85;;;3.30;84.20;;;;;;5012353;28;20037;-67
2021/04/06 03:22:48;;;;;;;5.55;1.83;;;3.30;83.90;;;;;;4994908;28;20026;-67
2021/04/06 03:25:14;;;;;;;6.60;1.90;;;3.30;84.00;;;;;;4991747;28;20054;-66
2021/04/06 03:27:46;;;;;;;6.53;2.10;;;3.30;83.90;;;;;;5005840;28;20356;-67
2021/04/06 03:30:14;;;;;;;3.10;1.88;;;3.30;84.20;;;;;;5013054;28;20057;-66
2021/04/06 03:32:41;;;;;;;4.75;2.10;;;3.20;84.20;;;;;;5012884;28;20097;-67
2021/04/06 03:35:08;;;;;;;9.45;2.53;;;3.20;84.10;;;;;;5020465;28;20041;-67
2021/04/06 03:37:37;;;;;;;6.00;1.88;;;3.20;84.00;;;;;;5024609;28;20018;-67
2021/04/06 03:40:04;;;;;;;5.63;2.33;;;3.30;84.20;;;;;;5013981;28;20041;-67
2021/04/06 03:42:30;;;;;;;4.22;2.00;;;3.30;84.20;;;;;;5012851;28;20471;-67
2021/04/06 03:45:07;;;;;;;6.32;2.20;;;3.30;84.30;;;;;;5018809;28;20033;-66
2021/04/06 03:47:54;;;;;;;8.13;2.20;;;3.30;84.30;;;;;;5016427;28;20121;-67
2021/04/06 03:50:38;;;;;;;2.95;1.95;;;3.20;84.40;;;;;;5021806;28;20045;-66
2021/04/06 03:53:09;;;;;;;4.10;2.08;;;3.20;84.40;;;;;;5029702;28;20038;-66
2021/04/06 03:55:36;;;;;;;4.18;2.08;;;3.20;84.30;;;;;;5022761;28;20036;-66
2021/04/06 03:58:19;;;;;;;3.50;1.85;;;3.20;84.40;;;;;;5022404;28;20038;-67
2021/04/06 04:00:44;;;;;;;4.32;2.47;;;3.20;84.50;;;;;;5024858;28;20056;-67
2021/04/06 04:03:10;;;;;;;5.00;2.45;;;3.20;84.30;;;;;;5022018;28;20030;-67
2021/04/06 04:05:35;;;;;;;5.25;2.38;;;3.20;84.60;;;;;;5023034;28;20112;-67
2021/04/06 04:08:01;;;;;;;6.22;2.17;;;3.10;84.90;;;;;;5023740;28;20406;-67
2021/04/06 04:10:27;;;;;;;5.10;2.10;;;3.20;84.80;;;;;;5022376;28;20094;-67
2021/04/06 04:12:53;;;;;;;4.97;2.17;;;3.10;85.00;;;;;;5014599;28;20037;-67
2021/04/06 04:15:20;;;;;;;4.93;3.05;;;3.20;85.00;;;;;;5018405;28;20025;-67
2021/04/06 04:17:47;;;;;;;4.65;2.35;;;3.10;85.00;;;;;;5013010;28;20034;-67
2021/04/06 04:20:14;;;;;;;4.40;2.25;;;3.20;84.90;;;;;;5010798;28;20037;-66
2021/04/06 04:22:39;;;;;;;6.38;2.42;;;3.20;85.40;;;;;;5011106;28;20450;-68
2021/04/06 04:25:07;;;;;;;6.45;2.70;;;3.20;85.20;;;;;;5015299;28;20021;-67
2021/04/06 04:27:33;;;;;;;6.18;2.85;;;3.20;85.20;;;;;;5011487;28;20105;-67
2021/04/06 04:29:58;;;;;;;5.38;2.38;;;3.20;85.10;;;;;;5015919;28;20040;-67
2021/04/06 04:32:24;;;;;;;5.93;2.35;;;3.20;85.10;;;;;;5011600;28;20829;-67
2021/04/06 04:34:49;;;;;;;6.40;2.70;;;3.10;85.10;;;;;;5015610;28;20041;-67
2021/04/06 04:37:15;;;;;;;6.38;2.45;;;3.20;85.20;;;;;;5011747;28;20026;-68
2021/04/06 04:39:41;;;;;;;6.30;2.63;;;3.20;85.20;;;;;;5018338;28;20057;-67
2021/04/06 04:42:07;;;;;;;6.22;2.60;;;3.20;85.10;;;;;;5029351;28;20080;-68
2021/04/06 04:44:32;;;;;;;5.93;2.05;;;3.20;85.00;;;;;;5014702;28;20021;-67
2021/04/06 04:46:58;;;;;;;6.57;2.47;;;3.20;85.10;;;;;;5031649;28;20029;-68
2021/04/06 04:49:23;;;;;;;5.32;2.55;;;3.10;85.30;;;;;;5014148;28;20323;-67
2021/04/06 04:51:49;;;;;;;6.93;2.75;;;3.10;85.20;;;;;;5013472;28;20486;-67
2021/04/06 04:54:14;;;;;;;13.73;2.97;;;3.10;85.10;;;;;;5027424;28;20042;-67
2021/04/06 04:56:40;;;;;;;4.25;2.45;;;3.20;85.30;;;;;;5032004;28;20463;-67
2021/04/06 04:59:05;;;;;;;6.93;2.83;;;3.20;85.40;;;;;;5027055;28;20049;-67
2021/04/06 05:01:31;;;;;;;5.55;2.35;;;3.20;85.50;;;;;;5031560;28;20029;-68
2021/04/06 05:03:56;;;;;;;4.97;2.20;;;3.10;85.40;;;;;;5018619;28;20459;-67
2021/04/06 05:06:22;;;;;;;7.28;2.70;;;3.10;85.40;;;;;;5020655;28;20034;-66
2021/04/06 05:08:47;;;;;;;6.25;2.53;;;3.20;85.40;;;;;;5011686;28;20121;-69
2021/04/06 05:11:13;;;;;;;6.07;2.85;;;3.20;85.30;;;;;;5001523;28;20017;-68
2021/04/06 05:13:38;;;;;;;5.80;2.30;;;3.20;85.30;;;;;;5011707;28;20045;-69
2021/04/06 05:16:04;;;;;;;8.23;2.67;;;3.20;85.30;;;;;;5020655;28;20068;-66
2021/04/06 05:18:30;;;;;;;4.78;2.20;;;3.20;85.20;;;;;;5017374;28;20174;-67
2021/04/06 05:20:55;;;;;;;5.00;2.40;;;3.20;85.10;;;;;;5027418;28;20033;-67
2021/04/06 05:23:21;;;;;;;5.35;2.88;;;3.30;85.10;;;;;;5022044;28;20041;-67
2021/04/06 05:25:47;;;;;;;7.50;2.72;;;3.30;85.00;;;;;;5024163;28;20112;-67
2021/04/06 05:28:12;;;;;;;12.77;2.78;;;3.30;85.10;;;;;;5020597;28;20029;-67
2021/04/06 05:30:38;;;;;;;7.55;3.42;;;3.30;85.10;;;;;;4999388;28;20101;-68
2021/04/06 05:33:04;;;;;;;6.10;2.53;;;3.30;85.00;;;;;;5006772;28;20417;-68
2021/04/06 05:35:30;;;;;;;5.78;2.33;;;3.30;85.20;;;;;;5017723;28;20029;-69
2021/04/06 05:37:55;;;;;;;5.00;2.50;;;3.40;85.20;;;;;;5010412;28;20100;-68
2021/04/06 05:40:21;;;;;;;5.20;2.95;;;3.40;85.20;;;;;;5013330;28;20025;-68
2021/04/06 05:42:47;;;;;;;4.90;2.55;;;3.40;85.10;;;;;;5000874;28;20502;-68
2021/04/06 05:45:13;;;;;;;5.82;2.60;;;3.40;85.00;;;;;;5020195;28;20040;-68
2021/04/06 05:47:46;;;;;;;7.85;3.03;;;3.40;85.20;;;;;;5008256;28;20034;-68
2021/04/06 05:50:12;;;;;;;9.68;3.22;;;3.50;85.10;;;;;;5018842;28;20120;-67
2021/04/06 05:52:37;;;;;;;6.78;2.90;;;3.50;85.20;;;;;;5030343;28;20134;-67
2021/04/06 05:55:05;;;;;;;7.05;2.75;;;3.50;85.30;;;;;;5022479;28;20477;-67
2021/04/06 05:57:31;;;;;;;7.68;3.50;;;3.50;85.10;;;;;;5031569;28;20071;-68
2021/04/06 05:59:56;;;;;;;5.72;2.60;;;3.60;85.20;;;;;;5020309;28;20053;-70
2021/04/06 06:02:22;;;;;;;7.53;2.90;;;3.60;85.20;;;;;;5021813;28;20431;-69
2021/04/06 06:04:48;;;;;;;8.65;3.40;;;3.70;84.90;;;;;;5023876;28;20033;-68
2021/04/06 06:07:14;;;;;;;4.53;2.97;;;3.70;84.90;;;;;;5005686;28;20022;-68
2021/04/06 06:09:40;;;;;;;6.57;3.05;;;3.70;84.90;;;;;;5006384;28;20065;-69
2021/04/06 06:12:08;;;;;;;8.45;3.10;;;3.80;85.50;;;;;;5003855;28;20432;-69
2021/04/06 06:14:39;;;;;;;5.50;3.40;;;3.80;85.00;;;;;;5018214;28;20080;-68
2021/04/06 06:17:12;;;;;;;10.38;2.95;;;3.90;85.00;;;;;;5024905;28;20041;-68
2021/04/06 06:19:38;;;;;;;6.40;2.75;;;3.90;84.60;;;;;;5017804;28;20453;-69
2021/04/06 06:22:18;;;;;;;5.95;3.10;;;4.00;84.30;;;;;;5010560;28;20104;-66
2021/04/06 06:24:47;;;;;;;8.25;3.03;;;4.00;84.50;;;;;;5025698;28;20392;-65
2021/04/06 06:27:40;;;;;;;7.32;3.00;;;4.00;84.50;;;;;;5016133;28;22370;-65
2021/04/06 06:30:28;;;;;;;7.07;2.50;;;4.10;84.40;;;;;;5021830;28;20509;-66
2021/04/06 06:33:23;;;;;;;6.55;2.75;;;4.20;84.20;;;;;;5017641;28;20064;-66
2021/04/06 06:35:49;;;;;;;6.57;3.20;;;4.20;84.30;;;;;;5020353;28;20394;-66
2021/04/06 06:38:20;;;;;;;7.40;2.85;;;4.20;84.20;;;;;;5005632;28;20119;-66
2021/04/06 06:40:47;;;;;;;8.85;3.17;;;4.40;84.40;;;;;;5019735;28;20372;-66
2021/04/06 06:43:15;;;;;;;9.25;3.20;;;4.40;84.10;;;;;;5012608;28;20042;-66
2021/04/06 06:45:41;;;;;;;7.03;3.10;;;4.50;83.80;;;;;;5020998;28;20030;-66
2021/04/06 06:48:07;;;;;;;11.02;3.35;;;4.50;83.50;;;;;;5013398;28;20029;-66
2021/04/06 06:50:45;;;;;;;7.10;3.38;;;4.50;83.40;;;;;;5019299;28;20101;-66
2021/04/06 06:53:11;;;;;;;6.55;2.30;;;4.60;83.30;;;;;;5013528;28;20034;-66
2021/04/06 06:55:37;;;;;;;5.93;2.60;;;4.70;83.10;;;;;;5019270;28;20138;-66
2021/04/06 06:58:06;;;;;;;4.15;2.55;;;4.70;82.80;;;;;;5013317;28;20105;-65
2021/04/06 07:00:32;;;;;;;8.32;3.72;;;4.70;82.50;;;;;;5020945;28;20056;-66
2021/04/06 07:02:58;;;;;;;6.97;2.92;;;4.80;82.60;;;;;;5010520;28;20030;-67
2021/04/06 07:05:26;;;;;;;7.65;2.88;;;4.90;82.90;;;;;;5022919;28;20085;-67
2021/04/06 07:08:06;;;;;;;6.30;2.63;;;5.10;82.50;;;;;;5033082;28;20025;-67
2021/04/06 07:10:34;;;;;;;7.05;2.70;;;5.10;81.90;;;;;;5006086;28;20661;-67
2021/04/06 07:13:19;;;;;;;7.65;2.90;;;5.20;81.70;;;;;;5020994;28;20526;-67
2021/04/06 07:15:48;;;;;;;6.80;2.72;;;5.30;81.40;;;;;;5015065;28;20517;-67
2021/04/06 07:18:19;;;;;;;8.10;3.13;;;5.40;81.40;;;;;;5016816;28;20505;-67
2021/04/06 07:20:58;;;;;;;5.70;2.80;;;5.50;81.10;;;;;;5019678;28;20513;-67
2021/04/06 07:23:38;;;;;;;7.65;3.08;;;5.50;80.40;;;;;;5025327;28;20053;-67
2021/04/06 07:26:09;;;;;;;5.90;2.63;;;5.70;80.20;;;;;;5028593;28;20099;-67
2021/04/06 07:28:35;;;;;;;5.40;2.80;;;5.70;79.80;;;;;;5030328;28;20064;-67
2021/04/06 07:31:03;;;;;;;6.50;2.65;;;5.80;79.70;;;;;;5011344;28;20041;-65
2021/04/06 07:33:31;;;;;;;11.65;2.63;;;5.80;79.60;;;;;;5012306;28;20049;-66
2021/04/06 07:36:03;;;;;;;8.43;2.83;;;5.90;79.70;;;;;;5027181;28;20051;-66
2021/04/06 07:38:32;;;;;;;7.60;2.80;;;6.00;79.40;;;;;;5018734;28;20065;-67
2021/04/06 07:40:58;;;;;;;6.60;2.53;;;6.10;79.20;;;;;;5012455;28;20367;-67
2021/04/06 07:43:26;;;;;;;5.55;2.63;;;6.20;78.40;;;;;;5027536;28;20116;-67
2021/04/06 07:45:51;;;;;;;8.20;2.75;;;6.30;78.90;;;;;;5029172;28;20485;-67
2021/04/06 07:48:41;;;;;;;4.65;2.65;;;6.40;78.60;;;;;;5014054;28;20057;-67
2021/04/06 07:51:21;;;;;;;5.50;2.50;;;6.50;77.90;;;;;;5028470;28;20033;-70
2021/04/06 07:53:57;;;;;;;9.55;3.20;;;6.60;77.10;;;;;;5012626;28;20498;-68
2021/04/06 07:56:49;;;;;;;6.35;3.05;;;6.70;76.40;;;;;;5012532;28;20029;-68
2021/04/06 07:59:18;;;;;;;8.35;3.55;;;6.70;75.70;;;;;;5008911;28;20165;-68
2021/04/06 08:02:07;;;;;;;7.32;3.22;;;6.80;75.60;;;;;;5017437;28;20037;-67
2021/04/06 08:04:41;;;;;;;8.32;2.80;;;6.90;75.60;;;;;;5000269;28;20053;-67
2021/04/06 08:07:19;;;;;;;7.65;2.90;;;6.90;74.40;;;;;;5012087;28;20034;-67
2021/04/06 08:09:55;;;;;;;5.25;2.55;;;6.90;74.00;;;;;;5010967;28;20379;-68
2021/04/06 08:12:24;;;;;;;8.98;3.65;;;6.90;74.10;;;;;;5011172;28;20073;-67
2021/04/06 08:14:51;;;;;;;7.07;3.33;;;7.00;73.70;;;;;;5012209;28;20356;-67
2021/04/06 08:17:26;;;;;;;5.70;2.88;;;7.10;73.90;;;;;;5008135;28;20070;-66
2021/04/06 08:20:05;;;;;;;6.90;3.10;;;7.00;73.00;;;;;;4994329;28;20030;-67
2021/04/06 08:23:01;;;;;;;8.05;2.95;;;7.10;72.80;;;;;;5007265;28;20034;-67
2021/04/06 08:25:29;;;;;;;5.45;2.78;;;7.10;72.50;;;;;;5009300;28;20113;-67
2021/04/06 08:27:57;;;;;;;6.18;3.03;;;7.00;72.50;;;;;;5008407;28;20068;-66
2021/04/06 08:30:27;;;;;;;8.55;2.85;;;7.10;72.90;;;;;;5008845;28;20022;-67
2021/04/06 08:32:58;;;;;;;7.00;3.05;;;7.10;73.10;;;;;;5010478;28;20041;-68
2021/04/06 08:35:45;;;;;;;6.53;3.15;;;7.20;72.60;;;;;;5015812;28;20033;-67
2021/04/06 08:38:20;;;;;;;6.53;3.15;;;7.30;72.50;;;;;;5011335;28;20165;-66
2021/04/06 08:41:09;;;;;;;8.95;3.08;;;7.30;72.40;;;;;;5010397;28;20396;-67
2021/04/06 08:43:44;;;;;;;7.72;3.35;;;7.40;72.30;;;;;;5011382;28;20121;-66
2021/04/06 08:46:27;;;;;;;8.40;3.10;;;7.50;72.20;;;;;;5010454;28;20030;-67
2021/04/06 08:48:56;;;;;;;8.70;2.85;;;7.50;71.60;;;;;;5009517;28;20034;-67
2021/04/06 08:51:32;;;;;;;8.23;3.38;;;7.50;70.80;;;;;;5011168;28;20030;-67
2021/04/06 08:54:12;;;;;;;14.23;4.15;;;7.50;71.00;;;;;;5008734;28;20041;-69
2021/04/06 08:56:41;;;;;;;8.68;2.97;;;7.50;70.90;;;;;;5004707;28;20077;-67
2021/04/06 08:59:31;;;;;;;9.88;2.90;;;7.60;70.90;;;;;;5009234;28;20089;-67
2021/04/06 09:02:02;;;;;;;10.02;2.97;;;7.60;70.30;;;;;;5000158;28;20049;-66
2021/04/06 09:04:37;;;;;;;9.27;3.00;;;7.60;69.70;;;;;;5012338;28;20033;-67
2021/04/06 09:07:16;;;;;;;9.68;2.92;;;7.60;69.70;;;;;;5028557;28;20034;-67
2021/04/06 09:09:42;;;;;;;11.90;4.15;;;7.60;69.50;;;;;;4998457;28;20045;-67
2021/04/06 09:12:08;;;;;;;12.00;3.88;;;7.60;69.00;;;;;;5028319;28;20025;-68
2021/04/06 09:14:33;;;;;;;16.10;3.60;;;7.50;69.30;;;;;;4994416;28;20508;-67
2021/04/06 09:16:59;;;;;;;8.13;3.00;;;7.50;69.70;;;;;;5008970;28;20054;-66
2021/04/06 09:19:25;;;;;;;8.50;3.17;;;7.40;69.90;;;;;;5016537;28;20100;-67
2021/04/06 09:21:53;;;;;;;6.57;2.85;;;7.40;70.30;;;;;;5002964;28;20025;-66
2021/04/06 09:24:21;;;;;;;8.93;3.25;;;7.40;70.20;;;;;;4997576;28;20018;-66
2021/04/06 09:26:51;;;;;;;7.15;2.83;;;7.40;70.40;;;;;;5013685;28;20471;-65
2021/04/06 09:29:18;;;;;;;11.30;3.13;;;7.50;70.40;;;;;;5014100;28;20025;-65
2021/04/06 09:31:56;;;;;;;9.73;2.97;;;7.50;70.00;;;;;;4995258;28;20034;-66
2021/04/06 09:34:28;;;;;;;6.20;3.08;;;7.70;70.30;;;;;;5011729;28;20305;-65
2021/04/06 09:37:04;;;;;;;8.50;3.13;;;7.80;69.90;;;;;;5010418;28;20026;-67
2021/04/06 09:39:30;;;;;;;7.18;2.63;;;7.90;69.70;;;;;;5018055;28;20025;-64
2021/04/06 09:41:58;;;;;;;9.98;2.72;;;7.90;69.00;;;;;;5031011;28;20064;-65
2021/04/06 09:44:27;;;;;;;10.57;3.58;;;7.80;68.70;;;;;;5017928;28;20120;-66
2021/04/06 09:46:59;;;;;;;7.93;2.95;;;7.90;68.10;;;;;;5016997;28;20074;-66
2021/04/06 09:49:37;;;;;;;7.88;3.22;;;7.90;68.20;;;;;;5017143;28;20024;-65
2021/04/06 09:52:06;;;;;;;8.68;3.67;;;7.90;68.20;;;;;;5027355;28;20438;-67
2021/04/06 09:54:36;;;;;;;9.25;2.70;;;8.00;68.50;;;;;;5017474;28;20037;-66
2021/04/06 09:57:09;;;;;;;6.68;2.72;;;8.20;68.40;;;;;;5034409;28;20026;-66
2021/04/06 09:59:35;;;;;;;10.40;2.95;;;8.20;67.50;;;;;;4997262;28;20042;-66
2021/04/06 10:02:01;;;;;;;14.38;3.20;;;8.30;65.80;;;;;;5014569;28;20383;-68
2021/04/06 10:04:34;;;;;;;8.77;3.05;;;8.30;65.50;;;;;;5000220;28;20128;-68
2021/04/06 10:07:08;;;;;;;10.63;3.72;;;8.30;65.60;;;;;;5014546;28;20506;-68
2021/04/06 10:09:37;;;;;;;4.45;2.25;;;8.40;64.50;;;;;;5003150;28;20030;-68
2021/04/06 10:12:03;;;;;;;7.18;2.65;;;8.50;64.60;;;;;;4996622;28;20041;-68
2021/04/06 10:14:29;;;;;;;6.07;2.72;;;8.50;64.20;;;;;;5001151;28;20418;-68
2021/04/06 10:16:56;;;;;;;9.52;2.85;;;8.50;64.00;;;;;;5012741;28;20025;-68
2021/04/06 10:19:25;;;;;;;9.43;2.90;;;8.60;63.90;;;;;;4997662;28;20026;-68
2021/04/06 10:22:17;;;;;;;9.35;2.70;;;8.60;63.50;;;;;;5013840;28;20026;-67
2021/04/06 10:24:46;;;;;;;7.30;2.67;;;8.70;63.90;;;;;;4987230;28;20121;-68
2021/04/06 10:27:26;;;;;;;7.10;2.53;;;8.80;63.20;;;;;;4995691;28;20030;-68
2021/04/06 10:30:00;;;;;;;11.43;2.92;;;8.90;63.30;;;;;;4988518;28;20032;-67
2021/04/06 10:32:32;;;;;;;11.30;3.55;;;8.90;62.90;;;;;;4994853;28;20046;-67
2021/04/06 10:35:06;;;;;;;10.70;3.70;;;8.90;62.90;;;;;;4997702;28;20121;-68
2021/04/06 10:37:43;;;;;;;;;;;9.00;62.90;;;;;;4993205;28;20035;-69
2021/04/06 10:40:37;;;;;;;9.63;2.10;;;9.00;62.60;;;;;;4998394;28;19909;-67
2021/04/06 10:43:07;;;;;;;8.63;2.80;;;8.90;62.20;;;;;;5011713;28;20042;-68
2021/04/06 10:45:35;;;;;;;7.68;2.58;;;8.80;61.70;;;;;;5003073;28;20034;-68
2021/04/06 10:48:05;;;;;;;9.40;2.65;;;8.70;61.80;;;;;;5009629;28;20467;-68
2021/04/06 10:50:32;;;;;;;9.05;2.25;;;8.80;62.00;;;;;;5006474;28;20033;-68
2021/04/06 10:52:58;;;;;;;9.70;2.72;;;8.70;61.80;;;;;;5012955;28;20033;-67
2021/04/06 10:55:35;;;;;;;4.70;2.50;;;8.70;61.50;;;;;;4991696;28;20386;-68
2021/04/06 10:58:00;;;;;;;7.40;2.53;;;8.80;61.60;;;;;;4993689;28;20483;-68
2021/04/06 11:00:28;;;;;;;6.53;2.22;;;8.70;61.50;;;;;;5012966;28;20065;-68
2021/04/06 11:03:14;;;;;;;11.00;3.40;;;8.70;61.30;;;;;;5011555;28;20036;-68
2021/04/06 11:05:41;;;;;;;8.27;2.25;;;8.60;62.10;;;;;;5012736;28;20506;-69
2021/04/06 11:08:24;;;;;;;5.95;2.42;;;8.40;63.10;;;;;;5011251;28;20068;-67
2021/04/06 11:10:53;;;;;;;8.25;2.72;;;8.50;64.20;;;;;;5003421;28;20029;-68
2021/04/06 11:13:18;;;;;;;8.30;2.95;;;8.40;64.70;;;;;;4993569;28;20518;-70
2021/04/06 11:15:44;;;;;;;7.03;2.30;;;8.40;65.20;;;;;;5013222;28;20036;-72
2021/04/06 11:18:12;;;;;;;8.55;2.95;;;8.40;65.20;;;;;;5012911;28;20088;-70
2021/04/06 11:20:37;;;;;;;8.68;2.70;;;8.50;65.50;;;;;;4995370;28;20064;-71
2021/04/06 11:23:04;;;;;;;8.70;2.78;;;8.60;66.00;;;;;;5013007;28;20472;-71
2021/04/06 11:25:29;;;;;;;9.00;3.50;;;8.60;65.00;;;;;;5012981;28;20032;-70
2021/04/06 11:27:58;;;;;;;5.65;2.28;;;8.70;64.20;;;;;;5005457;28;20038;-71
2021/04/06 11:30:31;;;;;;;13.10;3.17;;;8.70;63.40;;;;;;5023956;28;20030;-70
2021/04/06 11:32:59;;;;;;;10.48;3.50;;;8.80;62.90;;;;;;5011178;28;20054;-71
2021/04/06 11:35:25;;;;;;;5.55;2.15;;;8.80;61.50;;;;;;5021480;28;20018;-69
2021/04/06 11:37:50;;;;;;;6.95;1.90;;;8.80;60.50;;;;;;5020187;28;20493;-70
2021/04/06 11:40:16;;;;;;;4.70;2.05;;;8.90;60.90;;;;;;4982549;28;20038;-70
2021/04/06 11:42:41;;;;;;;4.78;2.05;;;9.10;60.70;;;;;;4998512;28;20040;-70
2021/04/06 11:45:08;;;;;;;5.20;1.70;;;9.10;60.00;;;;;;5019619;28;20446;-70
2021/04/06 11:47:34;;;;;;;5.88;2.17;;;9.20;59.70;;;;;;5014791;28;20022;-70
2021/04/06 11:50:01;;;;;;;7.28;2.25;;;9.30;59.60;;;;;;5012714;28;20399;-72
2021/04/06 11:52:27;;;;;;;12.15;3.00;;;9.30;60.10;;;;;;5011048;28;20046;-71
2021/04/06 11:54:52;;;;;;;7.40;2.33;;;9.40;59.60;;;;;;5016816;28;20105;-68
2021/04/06 11:57:18;;;;;;;5.93;2.25;;;9.40;57.20;;;;;;5027818;28;20160;-70
2021/04/06 11:59:44;;;;;;;7.95;2.28;;;9.10;57.40;;;;;;5008515;28;20042;-69
2021/04/06 12:02:13;;;;;;;6.95;2.47;;;8.80;59.40;;;;;;5010768;28;20038;-69
2021/04/06 12:04:38;;;;;;;4.60;2.30;;;8.60;61.20;;;;;;5015958;28;20044;-69
2021/04/06 12:07:04;;;;;;;6.70;2.15;;;8.50;62.50;;;;;;5022866;28;20022;-69
2021/04/06 12:09:29;;;;;;;6.95;2.50;;;8.40;62.70;;;;;;5016810;28;20044;-69
2021/04/06 12:11:55;;;;;;;8.32;2.10;;;8.40;63.30;;;;;;5010473;28;20018;-70
2021/04/06 12:14:21;;;;;;;9.45;2.58;;;8.30;64.00;;;;;;5011891;28;20026;-68
2021/04/06 12:16:48;;;;;;;6.90;2.45;;;8.30;64.00;;;;;;5024515;28;20025;-69
2021/04/06 12:19:14;;;;;;;9.18;2.58;;;8.30;63.60;;;;;;5010552;28;20029;-68
2021/04/06 12:21:39;;;;;;;9.15;2.53;;;8.30;63.50;;;;;;5012578;28;20471;-75
2021/04/06 12:24:05;;;;;;;5.05;2.30;;;8.20;62.50;;;;;;5010201;28;20387;-76
2021/04/06 12:26:31;;;;;;;4.20;2.03;;;8.10;61.50;;;;;;5008962;28;20026;-75
2021/04/06 12:28:56;;;;;;;6.93;2.20;;;8.20;61.90;;;;;;5011060;28;20022;-76
2021/04/06 12:31:23;;;;;;;4.55;1.90;;;8.30;61.60;;;;;;5013263;28;20037;-79
2021/04/06 12:33:48;;;;;;;7.68;1.95;;;8.30;61.30;;;;;;5012666;28;20092;-77
2021/04/06 12:36:14;;;;;;;6.03;1.90;;;8.50;61.40;;;;;;5015374;28;20030;-76
2021/04/06 12:38:40;;;;;;;6.07;2.50;;;8.50;61.20;;;;;;5010671;28;20545;-76
2021/04/06 12:41:05;;;;;;;4.22;1.75;;;8.60;61.30;;;;;;5025195;28;20037;-77
2021/04/06 12:43:32;;;;;;;4.60;1.98;;;8.60;58.40;;;;;;5009688;28;20101;-76
2021/04/06 12:45:57;;;;;;;4.65;1.88;;;8.60;58.50;;;;;;5008650;28;20144;-77
2021/04/06 12:48:23;;;;;;;5.85;2.05;;;8.70;57.40;;;;;;5001396;28;20586;-77
2021/04/06 12:50:49;;;;;;;5.97;1.80;;;8.70;57.40;;;;;;5011149;28;20472;-77
2021/04/06 12:53:15;;;;;;;8.50;3.17;;;8.70;57.00;;;;;;4988177;28;20050;-77
2021/04/06 12:55:40;;;;;;;9.63;3.10;;;8.70;55.60;;;;;;5009896;28;20113;-76
2021/04/06 12:58:06;;;;;;;6.50;1.77;;;8.80;56.10;;;;;;4988488;28;20476;-76
2021/04/06 13:00:31;;;;;;;4.68;2.00;;;8.90;56.00;;;;;;5011033;28;20080;-77
2021/04/06 13:02:57;;;;;;;3.78;1.83;;;9.00;56.60;;;;;;5015611;28;20029;-77
2021/04/06 13:05:22;;;;;;;3.22;1.63;;;9.10;55.90;;;;;;5015216;28;20084;-77
2021/04/06 13:07:48;;;;;;;4.47;1.45;;;9.20;55.50;;;;;;5015443;28;20501;-77
2021/04/06 13:10:16;;;;;;;6.03;1.98;;;9.20;55.20;;;;;;5015587;28;20493;-77
2021/04/06 13:12:43;;;;;;;6.28;1.80;;;9.30;55.00;;;;;;5015771;28;20069;-76